sensor_id;sensor_type;location;lat;lon;timestamp;temperature;humidity
65072;DHT22;51663;52.310;17.016;2022-08-23T00:00:30;36.40;33.50
65072;DHT22;51663;52.310;17.016;2022-08-23T00:03:39;36.30;33.70
65072;DHT22;51663;52.310;17.016;2022-08-23T00:06:44;36.00;34.00
65072;DHT22;51663;52.310;17.016;2022-08-23T00:09:47;36.00;34.10
65072;DHT22;51663;52.310;17.016;2022-08-23T00:12:49;35.80;34.20
65072;DHT22;51663;52.310;17.016;2022-08-23T00:15:51;36.00;34.10
65072;DHT22;51663;52.310;17.016;2022-08-23T00:18:54;36.00;34.40
65072;DHT22;51663;52.310;17.016;2022-08-23T00:21:56;35.80;34.50
65072;DHT22;51663;52.310;17.016;2022-08-23T00:24:58;35.50;35.20
65072;DHT22;51663;52.310;17.016;2022-08-23T00:28:00;35.40;35.20
65072;DHT22;51663;52.310;17.016;2022-08-23T00:31:03;35.70;35.10
65072;DHT22;51663;52.310;17.016;2022-08-23T00:34:05;35.90;34.80
65072;DHT22;51663;52.310;17.016;2022-08-23T00:37:08;35.90;34.90
65072;DHT22;51663;52.310;17.016;2022-08-23T00:40:13;35.80;35.00
65072;DHT22;51663;52.310;17.016;2022-08-23T00:43:19;35.90;35.00
65072;DHT22;51663;52.310;17.016;2022-08-23T00:46:43;35.90;35.10
65072;DHT22;51663;52.310;17.016;2022-08-23T00:50:33;35.80;35.10
65072;DHT22;51663;52.310;17.016;2022-08-23T00:53:45;36.10;34.60
65072;DHT22;51663;52.310;17.016;2022-08-23T00:56:48;36.10;34.70
65072;DHT22;51663;52.310;17.016;2022-08-23T00:59:51;35.80;35.10
65072;DHT22;51663;52.310;17.016;2022-08-23T01:02:53;35.90;35.00
65072;DHT22;51663;52.310;17.016;2022-08-23T01:06:02;35.70;35.40
65072;DHT22;51663;52.310;17.016;2022-08-23T01:09:13;35.60;35.50
65072;DHT22;51663;52.310;17.016;2022-08-23T01:12:30;35.70;35.40
65072;DHT22;51663;52.310;17.016;2022-08-23T01:15:47;35.90;35.60
65072;DHT22;51663;52.310;17.016;2022-08-23T01:18:51;36.40;34.80
65072;DHT22;51663;52.310;17.016;2022-08-23T01:22:12;36.30;34.60
65072;DHT22;51663;52.310;17.016;2022-08-23T01:25:18;36.40;34.80
65072;DHT22;51663;52.310;17.016;2022-08-23T01:28:22;36.50;34.20
65072;DHT22;51663;52.310;17.016;2022-08-23T01:31:24;36.40;34.60
65072;DHT22;51663;52.310;17.016;2022-08-23T01:34:28;36.50;34.50
65072;DHT22;51663;52.310;17.016;2022-08-23T01:37:35;36.30;34.80
65072;DHT22;51663;52.310;17.016;2022-08-23T01:40:41;36.10;35.00
65072;DHT22;51663;52.310;17.016;2022-08-23T01:43:43;36.10;35.20
65072;DHT22;51663;52.310;17.016;2022-08-23T01:46:46;36.10;34.90
65072;DHT22;51663;52.310;17.016;2022-08-23T01:49:48;36.00;35.20
65072;DHT22;51663;52.310;17.016;2022-08-23T01:52:51;35.90;36.90
65072;DHT22;51663;52.310;17.016;2022-08-23T01:55:53;35.90;36.70
65072;DHT22;51663;52.310;17.016;2022-08-23T01:58:55;35.60;37.30
65072;DHT22;51663;52.310;17.016;2022-08-23T02:01:57;35.20;38.10
65072;DHT22;51663;52.310;17.016;2022-08-23T02:04:59;34.90;39.10
65072;DHT22;51663;52.310;17.016;2022-08-23T02:08:03;34.70;39.70
65072;DHT22;51663;52.310;17.016;2022-08-23T02:11:25;34.80;39.90
65072;DHT22;51663;52.310;17.016;2022-08-23T02:14:28;34.80;39.50
65072;DHT22;51663;52.310;17.016;2022-08-23T02:17:30;34.90;39.40
65072;DHT22;51663;52.310;17.016;2022-08-23T02:20:32;35.00;39.10
65072;DHT22;51663;52.310;17.016;2022-08-23T02:23:34;35.10;39.10
65072;DHT22;51663;52.310;17.016;2022-08-23T02:26:38;35.00;39.00
65072;DHT22;51663;52.310;17.016;2022-08-23T02:29:47;35.10;38.90
65072;DHT22;51663;52.310;17.016;2022-08-23T02:32:52;35.30;39.00
65072;DHT22;51663;52.310;17.016;2022-08-23T02:35:57;35.20;38.90
65072;DHT22;51663;52.310;17.016;2022-08-23T02:38:59;35.20;38.80
65072;DHT22;51663;52.310;17.016;2022-08-23T02:42:02;35.10;38.90
65072;DHT22;51663;52.310;17.016;2022-08-23T02:45:05;34.90;39.10
65072;DHT22;51663;52.310;17.016;2022-08-23T02:48:09;34.90;39.40
65072;DHT22;51663;52.310;17.016;2022-08-23T02:51:11;34.90;39.50
65072;DHT22;51663;52.310;17.016;2022-08-23T02:54:13;35.10;39.20
65072;DHT22;51663;52.310;17.016;2022-08-23T02:57:15;35.10;39.00
65072;DHT22;51663;52.310;17.016;2022-08-23T03:00:18;35.20;38.90
65072;DHT22;51663;52.310;17.016;2022-08-23T03:03:22;35.40;38.50
65072;DHT22;51663;52.310;17.016;2022-08-23T03:06:25;35.20;38.90
65072;DHT22;51663;52.310;17.016;2022-08-23T03:09:27;35.40;38.50
65072;DHT22;51663;52.310;17.016;2022-08-23T03:12:30;35.40;38.50
65072;DHT22;51663;52.310;17.016;2022-08-23T03:15:32;35.10;38.70
65072;DHT22;51663;52.310;17.016;2022-08-23T03:18:36;35.50;38.40
65072;DHT22;51663;52.310;17.016;2022-08-23T03:21:38;35.50;38.20
65072;DHT22;51663;52.310;17.016;2022-08-23T03:24:44;35.40;38.60
65072;DHT22;51663;52.310;17.016;2022-08-23T03:27:47;35.60;38.30
65072;DHT22;51663;52.310;17.016;2022-08-23T03:30:49;35.60;38.00
65072;DHT22;51663;52.310;17.016;2022-08-23T03:33:52;35.60;38.00
65072;DHT22;51663;52.310;17.016;2022-08-23T03:36:54;35.70;38.00
65072;DHT22;51663;52.310;17.016;2022-08-23T03:39:57;35.60;38.20
65072;DHT22;51663;52.310;17.016;2022-08-23T03:42:59;35.30;38.50
65072;DHT22;51663;52.310;17.016;2022-08-23T03:46:02;35.40;38.40
65072;DHT22;51663;52.310;17.016;2022-08-23T03:49:05;35.30;38.40
65072;DHT22;51663;52.310;17.016;2022-08-23T03:52:07;35.20;38.70
65072;DHT22;51663;52.310;17.016;2022-08-23T03:55:10;35.30;38.80
65072;DHT22;51663;52.310;17.016;2022-08-23T03:58:12;35.80;38.30
65072;DHT22;51663;52.310;17.016;2022-08-23T04:01:14;35.90;37.60
65072;DHT22;51663;52.310;17.016;2022-08-23T04:04:16;35.80;38.10
65072;DHT22;51663;52.310;17.016;2022-08-23T04:07:20;36.40;37.20
65072;DHT22;51663;52.310;17.016;2022-08-23T04:10:22;36.00;37.60
65072;DHT22;51663;52.310;17.016;2022-08-23T04:13:24;36.20;37.50
65072;DHT22;51663;52.310;17.016;2022-08-23T04:16:29;36.20;37.20
65072;DHT22;51663;52.310;17.016;2022-08-23T04:19:34;35.90;37.90
65072;DHT22;51663;52.310;17.016;2022-08-23T04:22:37;35.90;37.90
65072;DHT22;51663;52.310;17.016;2022-08-23T04:25:39;36.00;37.80
65072;DHT22;51663;52.310;17.016;2022-08-23T04:28:43;35.90;37.80
65072;DHT22;51663;52.310;17.016;2022-08-23T04:31:46;35.90;37.90
65072;DHT22;51663;52.310;17.016;2022-08-23T04:34:49;35.80;38.10
65072;DHT22;51663;52.310;17.016;2022-08-23T04:37:52;35.70;38.40
65072;DHT22;51663;52.310;17.016;2022-08-23T04:40:55;35.40;38.50
65072;DHT22;51663;52.310;17.016;2022-08-23T04:44:17;35.50;38.90
65072;DHT22;51663;52.310;17.016;2022-08-23T04:47:19;35.80;38.50
65072;DHT22;51663;52.310;17.016;2022-08-23T04:50:21;35.60;38.70
65072;DHT22;51663;52.310;17.016;2022-08-23T04:53:24;36.20;38.00
65072;DHT22;51663;52.310;17.016;2022-08-23T04:56:26;36.40;37.60
65072;DHT22;51663;52.310;17.016;2022-08-23T04:59:29;36.30;37.90
65072;DHT22;51663;52.310;17.016;2022-08-23T05:02:31;36.30;37.60
65072;DHT22;51663;52.310;17.016;2022-08-23T05:05:33;36.60;37.30
65072;DHT22;51663;52.310;17.016;2022-08-23T05:08:35;36.60;37.50
65072;DHT22;51663;52.310;17.016;2022-08-23T05:11:37;36.30;37.80
65072;DHT22;51663;52.310;17.016;2022-08-23T05:14:39;35.90;38.40
65072;DHT22;51663;52.310;17.016;2022-08-23T05:17:45;35.70;38.60
65072;DHT22;51663;52.310;17.016;2022-08-23T05:20:47;35.40;39.30
65072;DHT22;51663;52.310;17.016;2022-08-23T05:23:49;35.20;40.10
65072;DHT22;51663;52.310;17.016;2022-08-23T05:26:55;35.30;39.70
65072;DHT22;51663;52.310;17.016;2022-08-23T05:29:58;35.30;39.90
65072;DHT22;51663;52.310;17.016;2022-08-23T05:33:00;35.70;39.60
65072;DHT22;51663;52.310;17.016;2022-08-23T05:36:04;35.80;39.40
65072;DHT22;51663;52.310;17.016;2022-08-23T05:39:07;35.60;39.00
65072;DHT22;51663;52.310;17.016;2022-08-23T05:42:11;35.70;39.40
65072;DHT22;51663;52.310;17.016;2022-08-23T05:45:14;35.60;39.50
65072;DHT22;51663;52.310;17.016;2022-08-23T05:48:21;35.60;39.50
65072;DHT22;51663;52.310;17.016;2022-08-23T05:51:26;35.70;39.40
65072;DHT22;51663;52.310;17.016;2022-08-23T05:54:29;35.80;39.00
65072;DHT22;51663;52.310;17.016;2022-08-23T05:57:34;35.40;39.60
65072;DHT22;51663;52.310;17.016;2022-08-23T06:00:36;35.50;39.90
65072;DHT22;51663;52.310;17.016;2022-08-23T06:03:42;35.00;41.10
65072;DHT22;51663;52.310;17.016;2022-08-23T06:06:44;35.50;40.20
65072;DHT22;51663;52.310;17.016;2022-08-23T06:09:46;35.80;39.80
65072;DHT22;51663;52.310;17.016;2022-08-23T06:12:48;35.70;39.70
65072;DHT22;51663;52.310;17.016;2022-08-23T06:15:51;36.10;39.00
65072;DHT22;51663;52.310;17.016;2022-08-23T06:18:54;36.30;38.50
65072;DHT22;51663;52.310;17.016;2022-08-23T06:21:57;36.20;38.60
65072;DHT22;51663;52.310;17.016;2022-08-23T06:24:59;36.30;38.60
65072;DHT22;51663;52.310;17.016;2022-08-23T06:28:01;36.30;38.70
65072;DHT22;51663;52.310;17.016;2022-08-23T06:31:04;36.40;38.40
65072;DHT22;51663;52.310;17.016;2022-08-23T06:34:11;36.60;38.30
65072;DHT22;51663;52.310;17.016;2022-08-23T06:37:14;36.60;38.60
65072;DHT22;51663;52.310;17.016;2022-08-23T06:40:16;36.80;38.20
65072;DHT22;51663;52.310;17.016;2022-08-23T06:43:19;37.10;38.10
65072;DHT22;51663;52.310;17.016;2022-08-23T06:46:24;36.90;38.00
65072;DHT22;51663;52.310;17.016;2022-08-23T06:49:30;36.90;38.20
65072;DHT22;51663;52.310;17.016;2022-08-23T06:52:32;36.90;38.00
65072;DHT22;51663;52.310;17.016;2022-08-23T06:55:34;36.90;38.60
65072;DHT22;51663;52.310;17.016;2022-08-23T06:58:36;37.20;37.70
65072;DHT22;51663;52.310;17.016;2022-08-23T07:01:43;36.90;38.00
65072;DHT22;51663;52.310;17.016;2022-08-23T07:04:48;37.10;38.00
65072;DHT22;51663;52.310;17.016;2022-08-23T07:07:54;37.00;38.10
65072;DHT22;51663;52.310;17.016;2022-08-23T07:10:57;37.20;38.00
65072;DHT22;51663;52.310;17.016;2022-08-23T07:14:00;37.30;37.90
65072;DHT22;51663;52.310;17.016;2022-08-23T07:17:03;37.30;37.60
65072;DHT22;51663;52.310;17.016;2022-08-23T07:20:06;37.20;38.10
65072;DHT22;51663;52.310;17.016;2022-08-23T07:23:08;37.60;37.50
65072;DHT22;51663;52.310;17.016;2022-08-23T07:26:13;37.70;38.00
65072;DHT22;51663;52.310;17.016;2022-08-23T07:29:16;37.40;37.50
65072;DHT22;51663;52.310;17.016;2022-08-23T07:32:19;37.50;37.90
65072;DHT22;51663;52.310;17.016;2022-08-23T07:35:21;37.70;37.90
65072;DHT22;51663;52.310;17.016;2022-08-23T07:38:23;38.00;37.40
65072;DHT22;51663;52.310;17.016;2022-08-23T07:41:32;38.10;37.00
65072;DHT22;51663;52.310;17.016;2022-08-23T07:44:36;38.10;37.10
65072;DHT22;51663;52.310;17.016;2022-08-23T07:47:38;37.90;37.00
65072;DHT22;51663;52.310;17.016;2022-08-23T07:50:55;37.80;37.30
65072;DHT22;51663;52.310;17.016;2022-08-23T07:54:02;37.70;37.70
65072;DHT22;51663;52.310;17.016;2022-08-23T07:57:04;37.80;37.60
65072;DHT22;51663;52.310;17.016;2022-08-23T08:00:07;37.90;37.20
65072;DHT22;51663;52.310;17.016;2022-08-23T08:03:11;37.90;37.30
65072;DHT22;51663;52.310;17.016;2022-08-23T08:06:19;38.00;37.40
65072;DHT22;51663;52.310;17.016;2022-08-23T08:09:22;37.60;37.50
65072;DHT22;51663;52.310;17.016;2022-08-23T08:12:25;37.70;37.50
65072;DHT22;51663;52.310;17.016;2022-08-23T08:15:27;38.00;37.30
65072;DHT22;51663;52.310;17.016;2022-08-23T08:18:29;37.90;37.10
65072;DHT22;51663;52.310;17.016;2022-08-23T08:21:32;37.80;37.50
65072;DHT22;51663;52.310;17.016;2022-08-23T08:24:35;37.60;37.80
65072;DHT22;51663;52.310;17.016;2022-08-23T08:27:37;37.50;38.00
65072;DHT22;51663;52.310;17.016;2022-08-23T08:30:39;37.90;37.60
65072;DHT22;51663;52.310;17.016;2022-08-23T08:33:41;38.00;37.60
65072;DHT22;51663;52.310;17.016;2022-08-23T08:36:54;37.90;37.50
65072;DHT22;51663;52.310;17.016;2022-08-23T08:39:59;37.90;37.60
65072;DHT22;51663;52.310;17.016;2022-08-23T08:43:29;38.00;37.40
65072;DHT22;51663;52.310;17.016;2022-08-23T08:46:50;38.10;37.40
65072;DHT22;51663;52.310;17.016;2022-08-23T08:53:15;37.60;38.50
65072;DHT22;51663;52.310;17.016;2022-08-23T08:56:23;37.70;38.00
65072;DHT22;51663;52.310;17.016;2022-08-23T09:00:27;37.70;38.30
65072;DHT22;51663;52.310;17.016;2022-08-23T09:03:21;37.90;38.10
65072;DHT22;51663;52.310;17.016;2022-08-23T09:13:08;37.80;38.40
65072;DHT22;51663;52.310;17.016;2022-08-23T09:19:38;37.90;38.20
65072;DHT22;51663;52.310;17.016;2022-08-23T09:22:45;38.10;37.60
65072;DHT22;51663;52.310;17.016;2022-08-23T09:25:56;38.10;37.50
65072;DHT22;51663;52.310;17.016;2022-08-23T09:29:28;38.10;37.90
65072;DHT22;51663;52.310;17.016;2022-08-23T09:32:34;37.80;38.50
65072;DHT22;51663;52.310;17.016;2022-08-23T09:35:37;37.90;38.50
65072;DHT22;51663;52.310;17.016;2022-08-23T09:38:50;37.80;38.40
65072;DHT22;51663;52.310;17.016;2022-08-23T09:41:52;38.00;38.40
65072;DHT22;51663;52.310;17.016;2022-08-23T09:44:55;37.80;38.80
65072;DHT22;51663;52.310;17.016;2022-08-23T09:47:58;37.80;38.50
65072;DHT22;51663;52.310;17.016;2022-08-23T09:51:17;37.80;38.60
65072;DHT22;51663;52.310;17.016;2022-08-23T09:54:32;37.90;38.30
65072;DHT22;51663;52.310;17.016;2022-08-23T09:57:34;37.60;38.60
65072;DHT22;51663;52.310;17.016;2022-08-23T10:00:37;37.60;39.00
65072;DHT22;51663;52.310;17.016;2022-08-23T10:03:41;38.00;38.40
65072;DHT22;51663;52.310;17.016;2022-08-23T10:06:44;37.70;38.80
65072;DHT22;51663;52.310;17.016;2022-08-23T10:09:46;37.60;39.30
65072;DHT22;51663;52.310;17.016;2022-08-23T10:12:49;37.70;39.20
65072;DHT22;51663;52.310;17.016;2022-08-23T10:22:52;38.00;38.90
65072;DHT22;51663;52.310;17.016;2022-08-23T10:25:58;37.70;39.50
65072;DHT22;51663;52.310;17.016;2022-08-23T10:35:50;38.10;38.90
65072;DHT22;51663;52.310;17.016;2022-08-23T10:39:36;38.00;38.80
65072;DHT22;51663;52.310;17.016;2022-08-23T10:45:56;37.20;40.20
65072;DHT22;51663;52.310;17.016;2022-08-23T10:49:02;37.80;39.70
65072;DHT22;51663;52.310;17.016;2022-08-23T10:52:09;37.80;39.40
65072;DHT22;51663;52.310;17.016;2022-08-23T10:55:28;37.70;39.60
65072;DHT22;51663;52.310;17.016;2022-08-23T10:58:53;38.10;39.40
65072;DHT22;51663;52.310;17.016;2022-08-23T11:08:33;37.90;40.40
65072;DHT22;51663;52.310;17.016;2022-08-23T11:15:04;38.00;39.10
65072;DHT22;51663;52.310;17.016;2022-08-23T11:21:44;37.40;40.00
65072;DHT22;51663;52.310;17.016;2022-08-23T11:31:43;37.50;39.90
65072;DHT22;51663;52.310;17.016;2022-08-23T11:35:07;37.90;39.60
65072;DHT22;51663;52.310;17.016;2022-08-23T11:38:11;38.00;39.00
65072;DHT22;51663;52.310;17.016;2022-08-23T11:44:22;37.20;40.10
65072;DHT22;51663;52.310;17.016;2022-08-23T11:47:38;37.10;40.70
65072;DHT22;51663;52.310;17.016;2022-08-23T12:06:55;38.60;38.80
65072;DHT22;51663;52.310;17.016;2022-08-23T12:10:03;39.10;38.60
65072;DHT22;51663;52.310;17.016;2022-08-23T12:13:43;38.90;38.50
65072;DHT22;51663;52.310;17.016;2022-08-23T12:16:47;38.90;38.90
65072;DHT22;51663;52.310;17.016;2022-08-23T12:19:52;39.00;38.20
65072;DHT22;51663;52.310;17.016;2022-08-23T12:23:11;38.90;38.30
65072;DHT22;51663;52.310;17.016;2022-08-23T12:26:43;38.60;39.10
65072;DHT22;51663;52.310;17.016;2022-08-23T12:30:07;38.80;38.80
65072;DHT22;51663;52.310;17.016;2022-08-23T12:39:50;38.90;38.80
65072;DHT22;51663;52.310;17.016;2022-08-23T12:43:05;39.00;38.30
65072;DHT22;51663;52.310;17.016;2022-08-23T12:49:35;38.70;39.00
65072;DHT22;51663;52.310;17.016;2022-08-23T12:52:37;38.80;38.70
65072;DHT22;51663;52.310;17.016;2022-08-23T12:55:46;38.90;39.30
65072;DHT22;51663;52.310;17.016;2022-08-23T12:59:00;39.20;38.50
65072;DHT22;51663;52.310;17.016;2022-08-23T13:02:10;39.40;38.70
65072;DHT22;51663;52.310;17.016;2022-08-23T13:08:44;39.70;37.60
65072;DHT22;51663;52.310;17.016;2022-08-23T13:11:48;39.60;38.00
65072;DHT22;51663;52.310;17.016;2022-08-23T13:14:52;39.40;38.40
65072;DHT22;51663;52.310;17.016;2022-08-23T13:17:58;39.50;38.10
65072;DHT22;51663;52.310;17.016;2022-08-23T13:21:28;39.60;37.90
65072;DHT22;51663;52.310;17.016;2022-08-23T13:24:42;39.70;38.00
65072;DHT22;51663;52.310;17.016;2022-08-23T13:31:01;39.40;37.90
65072;DHT22;51663;52.310;17.016;2022-08-23T13:34:03;39.50;38.40
65072;DHT22;51663;52.310;17.016;2022-08-23T13:40:25;39.90;37.60
65072;DHT22;51663;52.310;17.016;2022-08-23T13:46:31;40.10;37.20
65072;DHT22;51663;52.310;17.016;2022-08-23T13:49:35;40.40;36.60
65072;DHT22;51663;52.310;17.016;2022-08-23T13:52:37;40.70;35.90
65072;DHT22;51663;52.310;17.016;2022-08-23T13:55:59;40.40;36.60
65072;DHT22;51663;52.310;17.016;2022-08-23T13:59:06;40.40;36.10
65072;DHT22;51663;52.310;17.016;2022-08-23T14:02:18;40.30;35.70
65072;DHT22;51663;52.310;17.016;2022-08-23T14:05:21;40.40;36.20
65072;DHT22;51663;52.310;17.016;2022-08-23T14:08:24;40.60;35.90
65072;DHT22;51663;52.310;17.016;2022-08-23T14:11:27;40.60;35.50
65072;DHT22;51663;52.310;17.016;2022-08-23T14:14:30;40.70;35.70
65072;DHT22;51663;52.310;17.016;2022-08-23T14:17:40;40.40;35.70
65072;DHT22;51663;52.310;17.016;2022-08-23T14:20:42;40.50;36.10
65072;DHT22;51663;52.310;17.016;2022-08-23T14:23:46;40.60;35.70
65072;DHT22;51663;52.310;17.016;2022-08-23T14:26:48;40.60;35.40
65072;DHT22;51663;52.310;17.016;2022-08-23T14:29:53;40.60;36.10
65072;DHT22;51663;52.310;17.016;2022-08-23T14:32:58;40.30;36.40
65072;DHT22;51663;52.310;17.016;2022-08-23T14:36:01;40.30;36.60
65072;DHT22;51663;52.310;17.016;2022-08-23T14:39:03;40.30;36.40
65072;DHT22;51663;52.310;17.016;2022-08-23T14:42:06;40.10;36.70
65072;DHT22;51663;52.310;17.016;2022-08-23T14:45:10;40.10;36.50
65072;DHT22;51663;52.310;17.016;2022-08-23T14:48:13;40.10;36.00
65072;DHT22;51663;52.310;17.016;2022-08-23T14:51:31;40.00;36.30
65072;DHT22;51663;52.310;17.016;2022-08-23T14:54:34;40.00;36.70
65072;DHT22;51663;52.310;17.016;2022-08-23T14:57:37;40.40;36.80
65072;DHT22;51663;52.310;17.016;2022-08-23T15:00:39;40.70;35.60
65072;DHT22;51663;52.310;17.016;2022-08-23T15:03:41;40.70;35.60
65072;DHT22;51663;52.310;17.016;2022-08-23T15:06:44;40.30;36.10
65072;DHT22;51663;52.310;17.016;2022-08-23T15:10:07;39.70;36.70
65072;DHT22;51663;52.310;17.016;2022-08-23T15:13:11;39.60;37.30
65072;DHT22;51663;52.310;17.016;2022-08-23T15:16:26;40.00;36.70
65072;DHT22;51663;52.310;17.016;2022-08-23T15:19:29;39.80;36.30
65072;DHT22;51663;52.310;17.016;2022-08-23T15:22:31;40.00;36.30
65072;DHT22;51663;52.310;17.016;2022-08-23T15:25:42;39.80;35.90
65072;DHT22;51663;52.310;17.016;2022-08-23T15:28:44;39.80;36.20
65072;DHT22;51663;52.310;17.016;2022-08-23T15:31:47;39.80;36.20
65072;DHT22;51663;52.310;17.016;2022-08-23T15:34:50;40.20;36.30
65072;DHT22;51663;52.310;17.016;2022-08-23T15:37:54;40.10;36.30
65072;DHT22;51663;52.310;17.016;2022-08-23T15:40:57;40.00;36.80
65072;DHT22;51663;52.310;17.016;2022-08-23T15:43:59;40.00;35.50
65072;DHT22;51663;52.310;17.016;2022-08-23T15:47:04;39.70;35.50
65072;DHT22;51663;52.310;17.016;2022-08-23T15:50:07;39.70;35.60
65072;DHT22;51663;52.310;17.016;2022-08-23T15:53:09;39.60;36.60
65072;DHT22;51663;52.310;17.016;2022-08-23T15:56:18;39.70;36.30
65072;DHT22;51663;52.310;17.016;2022-08-23T15:59:21;39.80;35.70
65072;DHT22;51663;52.310;17.016;2022-08-23T16:02:23;39.70;35.30
65072;DHT22;51663;52.310;17.016;2022-08-23T16:05:26;39.80;36.40
65072;DHT22;51663;52.310;17.016;2022-08-23T16:08:35;39.70;36.00
65072;DHT22;51663;52.310;17.016;2022-08-23T16:11:38;40.00;35.90
65072;DHT22;51663;52.310;17.016;2022-08-23T16:14:41;40.30;35.40
65072;DHT22;51663;52.310;17.016;2022-08-23T16:17:43;40.30;35.40
65072;DHT22;51663;52.310;17.016;2022-08-23T16:20:45;40.20;35.70
65072;DHT22;51663;52.310;17.016;2022-08-23T16:23:47;40.50;34.20
65072;DHT22;51663;52.310;17.016;2022-08-23T16:26:50;40.50;34.50
65072;DHT22;51663;52.310;17.016;2022-08-23T16:29:52;40.50;34.30
65072;DHT22;51663;52.310;17.016;2022-08-23T16:32:56;40.40;35.00
65072;DHT22;51663;52.310;17.016;2022-08-23T16:35:58;40.60;35.30
65072;DHT22;51663;52.310;17.016;2022-08-23T16:39:00;40.60;35.40
65072;DHT22;51663;52.310;17.016;2022-08-23T16:42:04;40.60;34.80
65072;DHT22;51663;52.310;17.016;2022-08-23T16:45:08;40.30;35.40
65072;DHT22;51663;52.310;17.016;2022-08-23T16:48:10;40.20;35.60
65072;DHT22;51663;52.310;17.016;2022-08-23T16:51:16;40.20;36.00
65072;DHT22;51663;52.310;17.016;2022-08-23T16:54:19;40.40;35.60
65072;DHT22;51663;52.310;17.016;2022-08-23T16:57:21;40.20;36.00
65072;DHT22;51663;52.310;17.016;2022-08-23T17:00:23;40.20;36.00
65072;DHT22;51663;52.310;17.016;2022-08-23T17:03:25;40.30;35.90
65072;DHT22;51663;52.310;17.016;2022-08-23T17:06:27;40.30;35.80
65072;DHT22;51663;52.310;17.016;2022-08-23T17:09:30;40.10;36.30
65072;DHT22;51663;52.310;17.016;2022-08-23T17:12:34;40.20;36.00
65072;DHT22;51663;52.310;17.016;2022-08-23T17:15:38;40.30;36.10
65072;DHT22;51663;52.310;17.016;2022-08-23T17:18:40;40.40;35.90
65072;DHT22;51663;52.310;17.016;2022-08-23T17:21:42;40.50;35.90
65072;DHT22;51663;52.310;17.016;2022-08-23T17:24:44;40.50;35.60
65072;DHT22;51663;52.310;17.016;2022-08-23T17:27:48;40.40;36.00
65072;DHT22;51663;52.310;17.016;2022-08-23T17:30:51;40.50;36.00
65072;DHT22;51663;52.310;17.016;2022-08-23T17:33:53;40.50;35.80
65072;DHT22;51663;52.310;17.016;2022-08-23T17:36:55;40.50;35.90
65072;DHT22;51663;52.310;17.016;2022-08-23T17:39:58;40.40;35.90
65072;DHT22;51663;52.310;17.016;2022-08-23T17:43:00;40.60;36.00
65072;DHT22;51663;52.310;17.016;2022-08-23T17:46:04;40.40;36.10
65072;DHT22;51663;52.310;17.016;2022-08-23T17:49:07;40.20;36.20
65072;DHT22;51663;52.310;17.016;2022-08-23T17:52:09;40.20;36.60
65072;DHT22;51663;52.310;17.016;2022-08-23T17:55:13;40.20;36.50
65072;DHT22;51663;52.310;17.016;2022-08-23T17:58:19;40.20;36.60
65072;DHT22;51663;52.310;17.016;2022-08-23T18:01:23;40.20;36.70
65072;DHT22;51663;52.310;17.016;2022-08-23T18:04:25;40.20;36.80
65072;DHT22;51663;52.310;17.016;2022-08-23T18:07:27;40.20;36.70
65072;DHT22;51663;52.310;17.016;2022-08-23T18:10:31;40.20;36.80
65072;DHT22;51663;52.310;17.016;2022-08-23T18:13:33;40.20;36.90
65072;DHT22;51663;52.310;17.016;2022-08-23T18:16:36;40.20;36.80
65072;DHT22;51663;52.310;17.016;2022-08-23T18:19:39;40.30;36.70
65072;DHT22;51663;52.310;17.016;2022-08-23T18:22:41;40.20;36.80
65072;DHT22;51663;52.310;17.016;2022-08-23T18:25:44;40.20;36.90
65072;DHT22;51663;52.310;17.016;2022-08-23T18:28:48;40.10;36.90
65072;DHT22;51663;52.310;17.016;2022-08-23T18:31:50;40.20;36.90
65072;DHT22;51663;52.310;17.016;2022-08-23T18:34:53;40.20;37.00
65072;DHT22;51663;52.310;17.016;2022-08-23T18:37:55;40.20;36.90
65072;DHT22;51663;52.310;17.016;2022-08-23T18:40:58;40.20;36.90
65072;DHT22;51663;52.310;17.016;2022-08-23T18:44:00;40.20;36.90
65072;DHT22;51663;52.310;17.016;2022-08-23T18:47:07;40.20;37.00
65072;DHT22;51663;52.310;17.016;2022-08-23T18:50:11;40.10;37.10
65072;DHT22;51663;52.310;17.016;2022-08-23T18:53:16;40.00;37.10
65072;DHT22;51663;52.310;17.016;2022-08-23T18:56:18;39.90;37.20
65072;DHT22;51663;52.310;17.016;2022-08-23T18:59:20;39.90;37.20
65072;DHT22;51663;52.310;17.016;2022-08-23T19:02:22;39.90;37.30
65072;DHT22;51663;52.310;17.016;2022-08-23T19:05:25;39.80;37.40
65072;DHT22;51663;52.310;17.016;2022-08-23T19:08:27;39.80;38.10
65072;DHT22;51663;52.310;17.016;2022-08-23T19:11:30;39.80;37.40
65072;DHT22;51663;52.310;17.016;2022-08-23T19:14:32;39.60;37.70
65072;DHT22;51663;52.310;17.016;2022-08-23T19:17:36;39.60;37.90
65072;DHT22;51663;52.310;17.016;2022-08-23T19:20:39;39.50;37.90
65072;DHT22;51663;52.310;17.016;2022-08-23T19:23:41;39.40;37.80
65072;DHT22;51663;52.310;17.016;2022-08-23T19:26:44;39.50;38.00
65072;DHT22;51663;52.310;17.016;2022-08-23T19:29:48;39.40;37.90
65072;DHT22;51663;52.310;17.016;2022-08-23T19:32:51;39.40;38.00
65072;DHT22;51663;52.310;17.016;2022-08-23T19:35:54;39.40;38.00
65072;DHT22;51663;52.310;17.016;2022-08-23T19:38:58;39.40;38.00
65072;DHT22;51663;52.310;17.016;2022-08-23T19:42:02;39.50;37.80
65072;DHT22;51663;52.310;17.016;2022-08-23T19:45:12;39.40;38.00
65072;DHT22;51663;52.310;17.016;2022-08-23T19:48:15;39.40;37.90
65072;DHT22;51663;52.310;17.016;2022-08-23T19:51:18;39.40;37.90
65072;DHT22;51663;52.310;17.016;2022-08-23T19:54:20;39.40;38.00
65072;DHT22;51663;52.310;17.016;2022-08-23T19:57:24;39.30;38.00
65072;DHT22;51663;52.310;17.016;2022-08-23T20:00:26;39.30;38.10
65072;DHT22;51663;52.310;17.016;2022-08-23T20:03:28;39.40;38.00
65072;DHT22;51663;52.310;17.016;2022-08-23T20:06:31;39.40;38.00
65072;DHT22;51663;52.310;17.016;2022-08-23T20:09:34;39.40;38.00
65072;DHT22;51663;52.310;17.016;2022-08-23T20:12:36;39.30;38.00
65072;DHT22;51663;52.310;17.016;2022-08-23T20:15:39;39.30;38.10
65072;DHT22;51663;52.310;17.016;2022-08-23T20:18:42;39.20;38.20
65072;DHT22;51663;52.310;17.016;2022-08-23T20:21:44;39.40;38.00
65072;DHT22;51663;52.310;17.016;2022-08-23T20:24:47;39.20;38.10
65072;DHT22;51663;52.310;17.016;2022-08-23T20:27:53;39.00;38.30
65072;DHT22;51663;52.310;17.016;2022-08-23T20:30:55;39.20;38.20
65072;DHT22;51663;52.310;17.016;2022-08-23T20:33:58;39.20;38.20
65072;DHT22;51663;52.310;17.016;2022-08-23T20:37:00;39.10;38.30
65072;DHT22;51663;52.310;17.016;2022-08-23T20:40:04;39.20;38.20
65072;DHT22;51663;52.310;17.016;2022-08-23T20:43:07;39.10;38.20